page 4933 of 1015016 registered users

eBook PostsUsers

  1. 0boneerror04 registered @ 2012-12-14 20:30:07, last login @ 2012-12-14 20:30:07
  2. 08630044 registered @ 2012-12-14 20:31:11, last login @ 2012-12-14 20:31:11
  3. 0heavenplough8 registered @ 2012-12-14 20:31:20, last login @ 2012-12-14 20:31:20
  4. 0Cathycsy registered @ 2012-12-14 20:31:52, last login @ 2012-12-14 20:31:52
  5. 0singledecade46 registered @ 2012-12-14 20:34:24, last login @ 2012-12-14 20:34:24
  6. 0grayrub1 registered @ 2012-12-14 20:34:26, last login @ 2012-12-14 20:34:26
  7. 0datepie1 registered @ 2012-12-14 20:34:32, last login @ 2012-12-14 20:59:16
  8. 0scarfring0 registered @ 2012-12-14 20:34:56, last login @ 2012-12-14 20:34:56
  9. 0tankjoin68 registered @ 2012-12-14 20:36:09, last login @ 2012-12-14 20:36:09
  10. 0hangleqi registered @ 2012-12-14 20:37:04, last login @ 2012-12-14 20:42:53
  11. 0ferry15priest registered @ 2012-12-14 20:37:23, last login @ 2012-12-14 20:37:23
  12. 0lute8wren registered @ 2012-12-14 20:37:24, last login @ 2012-12-14 20:37:24
  13. 0gum0crab registered @ 2012-12-14 20:37:49, last login @ 2012-12-14 20:37:49
  14. 0beaverwind07 registered @ 2012-12-14 20:39:10, last login @ 2012-12-14 20:39:10
  15. 0ice19betty registered @ 2012-12-14 20:39:35, last login @ 2012-12-14 20:39:35
  16. 0caroldock7 registered @ 2012-12-14 20:41:36, last login @ 2012-12-14 20:41:36
  17. 0WhitneyHMcLendon registered @ 2012-12-14 20:42:31, last login @ 2012-12-14 20:45:55
  18. 0salad49select registered @ 2012-12-14 20:42:52, last login @ 2012-12-14 20:42:52
  19. 0spade45botany registered @ 2012-12-14 20:43:11, last login @ 2012-12-14 20:43:11
  20. 0growth04burst registered @ 2012-12-14 20:44:46, last login @ 2012-12-14 20:44:46
  21. 0quincearies5 registered @ 2012-12-14 20:44:47, last login @ 2012-12-14 20:44:47
  22. 0peace00catsup registered @ 2012-12-14 20:47:00, last login @ 2012-12-14 20:47:00
  23. 0mouseskin58 registered @ 2012-12-14 20:48:21, last login @ 2012-12-14 20:48:21
  24. 0back3yellow registered @ 2012-12-14 20:51:38, last login @ 2012-12-14 20:51:38
  25. 0bamboo80packet registered @ 2012-12-14 20:52:08, last login @ 2012-12-14 20:52:08
  26. 0atom40jury registered @ 2012-12-14 20:52:11, last login @ 2012-12-14 20:52:11
  27. 0vikramaditya712 registered @ 2012-12-14 20:52:52, last login @ 2012-12-14 20:52:52
  28. 0wolfvessel43 registered @ 2012-12-14 20:55:16, last login @ 2012-12-14 20:55:16
  29. 0kittenonion7 registered @ 2012-12-14 20:56:52, last login @ 2012-12-14 20:56:52
  30. 0perumarket56 registered @ 2012-12-14 20:58:34, last login @ 2012-12-14 20:58:34
  31. 0radish2drain registered @ 2012-12-14 20:59:12, last login @ 2012-12-14 20:59:12
  32. 0toastdrug91 registered @ 2012-12-14 20:59:26, last login @ 2012-12-14 20:59:26
  33. 0barber13park registered @ 2012-12-14 20:59:34, last login @ 2012-12-14 20:59:34
  34. 0cub29donkey registered @ 2012-12-14 21:01:39, last login @ 2012-12-14 21:01:39
  35. 0finacieradinero2 registered @ 2012-12-14 21:02:53, last login @ 2012-12-14 21:02:53
  36. 0sun50nation registered @ 2012-12-14 21:04:20, last login @ 2012-12-14 21:04:20
  37. 0leg6cinema registered @ 2012-12-14 21:05:12, last login @ 2012-12-14 21:05:12
  38. 0sammymfkci98q registered @ 2012-12-14 21:05:20, last login @ 2012-12-14 21:05:20
  39. 0spadewood2 registered @ 2012-12-14 21:06:48, last login @ 2012-12-14 21:06:48
  40. 0greekmirror1 registered @ 2012-12-14 21:07:22, last login @ 2012-12-14 21:07:22
  41. 0abim registered @ 2012-12-14 21:07:39, last login @ 2012-12-14 21:09:30
  42. 0chance65crow registered @ 2012-12-14 21:07:51, last login @ 2012-12-14 21:07:51
  43. 0blade5rubber registered @ 2012-12-14 21:08:43, last login @ 2012-12-14 21:08:43
  44. 0paulzipper4 registered @ 2012-12-14 21:09:34, last login @ 2012-12-14 21:48:57
  45. 0thread05course registered @ 2012-12-14 21:09:34, last login @ 2012-12-14 21:09:34
  46. 0monthjudge5 registered @ 2012-12-14 21:10:02, last login @ 2012-12-14 21:10:02
  47. 0marblecase4 registered @ 2012-12-14 21:10:07, last login @ 2012-12-14 21:10:07
  48. 0yarn24zebra registered @ 2012-12-14 21:11:31, last login @ 2012-12-14 21:11:31
  49. 0wingpaul90 registered @ 2012-12-14 21:11:49, last login @ 2012-12-14 21:11:49
  50. 0Hydroxycut53 registered @ 2012-12-14 21:12:23, last login @ 2012-12-14 21:29:30
  51. 0supply3temper registered @ 2012-12-14 21:12:23, last login @ 2012-12-14 21:12:23
  52. 0securefork55 registered @ 2012-12-14 21:13:20, last login @ 2012-12-14 21:13:20
  53. 0AlejandroHWroten registered @ 2012-12-14 21:13:42, last login @ 2012-12-14 21:13:42
  54. 0indiawaiter25 registered @ 2012-12-14 21:14:21, last login @ 2012-12-14 21:14:21
  55. 0versebonsai80 registered @ 2012-12-14 21:14:39, last login @ 2012-12-14 21:14:39
  56. 0throneprint5 registered @ 2012-12-14 21:18:38, last login @ 2012-12-14 21:55:51
  57. 0formatnoodle4 registered @ 2012-12-14 21:20:10, last login @ 2012-12-14 21:20:10
  58. 0firedstep77 registered @ 2012-12-14 21:23:03, last login @ 2012-12-14 21:23:03
  59. 0border94dahlia registered @ 2012-12-14 21:23:25, last login @ 2012-12-14 21:23:25
  60. 0yoke07kayak registered @ 2012-12-14 21:23:39, last login @ 2012-12-14 21:23:39
  61. 0FredricHEbert registered @ 2012-12-14 21:24:00, last login @ 2012-12-14 21:31:13
  62. 0coppercable03 registered @ 2012-12-14 21:24:16, last login @ 2012-12-14 21:24:16
  63. 0wound8beer registered @ 2012-12-14 21:25:20, last login @ 2012-12-14 21:25:20
  64. 0throne3horse registered @ 2012-12-14 21:25:42, last login @ 2012-12-14 21:25:42
  65. 0smokeground95 registered @ 2012-12-14 21:26:16, last login @ 2012-12-14 21:26:16
  66. 0injenomia registered @ 2012-12-14 21:26:53, last login @ 2012-12-14 21:26:53
  67. 0fishfan1 registered @ 2012-12-14 21:27:41, last login @ 2012-12-14 21:27:41
  68. 0editorhen8 registered @ 2012-12-14 21:27:47, last login @ 2012-12-14 21:27:47
  69. 0wheel15loan registered @ 2012-12-14 21:29:21, last login @ 2012-12-14 21:29:21
  70. 0parentcough52 registered @ 2012-12-14 21:29:42, last login @ 2012-12-14 21:29:42
  71. 0sock28frog registered @ 2012-12-14 21:30:02, last login @ 2012-12-14 21:30:02
  72. 0snail1brace registered @ 2012-12-14 21:30:34, last login @ 2012-12-14 21:30:34
  73. 0coach48screen registered @ 2012-12-14 21:32:05, last login @ 2012-12-14 21:32:05
  74. 0silveroption2 registered @ 2012-12-14 21:32:20, last login @ 2012-12-14 21:32:20
  75. 0nation85income registered @ 2012-12-14 21:32:55, last login @ 2012-12-14 21:32:55
  76. 0spleen7lute registered @ 2012-12-14 21:33:22, last login @ 2012-12-14 21:33:22
  77. 0nutsoy94 registered @ 2012-12-14 21:33:59, last login @ 2012-12-14 21:33:59
  78. 0flaxcereal01 registered @ 2012-12-14 21:34:30, last login @ 2012-12-14 21:34:30
  79. 0greek3lynx registered @ 2012-12-14 21:35:42, last login @ 2012-12-14 21:35:42
  80. 0drawer1decade registered @ 2012-12-14 21:36:03, last login @ 2012-12-14 21:36:03
  81. 0actorguitar71 registered @ 2012-12-14 21:36:27, last login @ 2012-12-14 21:36:27
  82. 0qolqedkao registered @ 2012-12-14 21:36:28, last login @ 2012-12-14 21:36:28
  83. 0donna4japan registered @ 2012-12-14 21:37:15, last login @ 2012-12-14 21:37:15
  84. 0violaspoon5 registered @ 2012-12-14 21:38:03, last login @ 2012-12-14 21:38:03
  85. 0lisaheight75 registered @ 2012-12-14 21:38:07, last login @ 2012-12-14 21:38:07
  86. 0alibitrunk3 registered @ 2012-12-14 21:39:00, last login @ 2012-12-14 21:39:00
  87. 0beefwalk44 registered @ 2012-12-14 21:39:18, last login @ 2012-12-14 21:39:18
  88. 0marktime3 registered @ 2012-12-14 21:39:43, last login @ 2012-12-14 21:39:43
  89. 0aisyahzahra registered @ 2012-12-14 21:40:45, last login @ 2012-12-14 21:40:45
  90. 0dangerbead2 registered @ 2012-12-14 21:40:52, last login @ 2012-12-14 21:40:52
  91. 0mapleuncle4 registered @ 2012-12-14 21:41:09, last login @ 2012-12-14 21:41:09
  92. 0cowact72 registered @ 2012-12-14 21:41:13, last login @ 2012-12-14 21:41:13
  93. 0ashish7007 registered @ 2012-12-14 21:41:22, last login @ 2012-12-14 21:41:22
  94. 0peony77twist registered @ 2012-12-14 21:43:09, last login @ 2012-12-14 21:43:09
  95. 0bank1suede registered @ 2012-12-14 21:44:17, last login @ 2012-12-14 21:44:17
  96. 0soccermaple68 registered @ 2012-12-14 21:44:24, last login @ 2012-12-14 21:44:24
  97. 0guitarsex8 registered @ 2012-12-14 21:44:30, last login @ 2012-12-14 21:44:30
  98. 0stagebeggar8 registered @ 2012-12-14 21:45:15, last login @ 2012-12-14 21:45:15
  99. 0anime4art registered @ 2012-12-14 21:46:55, last login @ 2012-12-14 21:46:55
  100. 0cafewinter06 registered @ 2012-12-14 21:48:42, last login @ 2012-12-14 21:48:42
  101. 0sampson436 registered @ 2012-12-14 21:48:50, last login @ 2012-12-14 21:48:50

More...

[4943] [4942] [4941] [4940] [4939] [4938] [4937] [4936] [4935] [4934] [4933] [4932] [4931] [4930] [4929] [4928] [4927] [4926] [4925] [4924] ...[1]
Back to Top